createdAt,value
2022-07-31T00:00:17.380Z,101956.69
2022-07-31T00:02:44.603Z,101933.50
2022-07-31T00:05:11.237Z,101935.53
2022-07-31T00:07:37.720Z,101942.72
2022-07-31T00:10:04.983Z,101946.81
2022-07-31T00:12:31.622Z,101949.66
2022-07-31T00:14:58.066Z,101955.53
2022-07-31T00:17:24.515Z,101973.00
2022-07-31T00:19:50.965Z,101985.72
2022-07-31T00:22:17.431Z,101997.09
2022-07-31T00:24:43.931Z,102007.38
2022-07-31T00:27:10.843Z,102004.63
2022-07-31T00:29:38.634Z,102003.41
2022-07-31T00:32:05.602Z,101993.31
2022-07-31T00:34:32.226Z,102003.81
2022-07-31T00:36:58.725Z,101993.50
2022-07-31T00:39:25.216Z,101990.88
2022-07-31T00:41:51.726Z,101997.31
2022-07-31T00:44:18.497Z,101995.69
2022-07-31T00:46:45.136Z,102009.22
2022-07-31T00:49:11.678Z,102008.03
2022-07-31T00:51:39.589Z,102007.56
2022-07-31T00:54:08.327Z,102022.19
2022-07-31T00:56:35.488Z,102030.66
2022-07-31T00:59:02.311Z,102042.63
2022-07-31T01:01:28.934Z,102055.16
2022-07-31T01:03:55.454Z,102074.00
2022-07-31T01:06:22.014Z,102075.47
2022-07-31T01:08:48.833Z,102101.91
2022-07-31T01:11:26.332Z,102116.06
2022-07-31T01:14:07.087Z,102125.44
2022-07-31T01:16:38.946Z,102148.19
2022-07-31T01:19:23.265Z,102160.31
2022-07-31T01:22:42.508Z,102167.72
2022-07-31T01:25:36.950Z,102188.34
2022-07-31T01:28:09.467Z,102210.16
2022-07-31T01:30:45.728Z,102222.31
2022-07-31T01:33:20.067Z,102235.78
2022-07-31T01:35:53.056Z,102241.72
2022-07-31T01:38:27.740Z,102260.88
2022-07-31T01:40:58.430Z,102264.31
2022-07-31T01:43:42.025Z,102265.44
2022-07-31T01:46:15.443Z,102592.16
2022-07-31T01:48:43.330Z,102536.31
2022-07-31T01:51:11.295Z,102506.47
2022-07-31T01:53:39.749Z,102501.94
2022-07-31T01:56:08.207Z,102493.44
2022-07-31T01:58:42.306Z,102492.22
2022-07-31T02:01:11.950Z,102488.13
2022-07-31T02:03:43.324Z,102497.31
2022-07-31T02:06:17.903Z,102502.59
2022-07-31T02:08:47.437Z,102510.06
2022-07-31T02:11:17.890Z,102523.41
2022-07-31T02:13:46.965Z,102529.09
2022-07-31T02:16:14.830Z,102519.66
2022-07-31T02:18:42.474Z,102529.72
2022-07-31T02:21:10.327Z,102514.75
2022-07-31T02:23:37.145Z,102518.56
2022-07-31T02:26:07.026Z,102525.47
2022-07-31T02:28:37.950Z,102531.50
2022-07-31T02:31:08.708Z,102536.34
2022-07-31T02:33:36.827Z,102548.50
2022-07-31T02:36:05.138Z,102563.47
2022-07-31T02:38:33.560Z,102564.00
2022-07-31T02:41:02.495Z,102573.81
2022-07-31T02:43:32.019Z,102581.09
2022-07-31T02:45:59.032Z,102586.81
2022-07-31T02:48:26.627Z,102584.22
2022-07-31T02:50:53.436Z,102581.75
2022-07-31T02:53:20.763Z,102588.47
2022-07-31T02:55:47.592Z,102596.66
2022-07-31T02:58:14.620Z,102596.16
2022-07-31T03:00:41.401Z,102604.72
2022-07-31T03:03:07.978Z,102603.91
2022-07-31T03:05:34.575Z,102602.66
2022-07-31T03:08:01.051Z,102605.38
2022-07-31T03:10:27.690Z,102607.44
2022-07-31T03:12:55.605Z,102611.06
2022-07-31T03:15:25.452Z,102607.72
2022-07-31T03:17:53.628Z,102613.13
2022-07-31T03:20:20.792Z,102622.78
2022-07-31T03:22:47.460Z,102627.59
2022-07-31T03:25:21.152Z,102632.97
2022-07-31T03:27:55.411Z,102643.25
2022-07-31T03:30:26.493Z,102721.09
2022-07-31T03:32:54.445Z,102719.03
2022-07-31T03:35:21.359Z,102722.50
2022-07-31T03:37:47.869Z,102723.13
2022-07-31T03:40:14.414Z,102720.78
2022-07-31T03:42:42.100Z,102729.09
2022-07-31T03:45:12.240Z,102733.22
2022-07-31T03:47:39.228Z,102747.25
2022-07-31T03:50:07.842Z,102752.88
2022-07-31T03:52:35.355Z,102770.50
2022-07-31T03:55:02.103Z,102771.53
2022-07-31T03:57:31.324Z,102800.13
2022-07-31T04:00:02.582Z,102797.59
2022-07-31T04:02:29.987Z,102811.91
2022-07-31T04:04:58.476Z,102797.53
2022-07-31T04:07:25.015Z,102799.78
2022-07-31T04:09:51.847Z,102794.59
2022-07-31T04:12:18.496Z,102810.41
2022-07-31T04:14:45.127Z,102799.88
2022-07-31T04:17:11.616Z,102806.75
2022-07-31T04:19:39.242Z,102804.06
2022-07-31T04:22:06.353Z,102804.50
2022-07-31T04:24:33.380Z,102809.09
2022-07-31T04:26:59.880Z,102811.91
2022-07-31T04:29:28.682Z,102805.78
2022-07-31T04:31:55.823Z,102800.59
2022-07-31T04:34:22.431Z,102795.22
2022-07-31T04:36:48.951Z,102794.75
2022-07-31T04:39:15.408Z,102795.84
2022-07-31T04:41:41.836Z,102778.25
2022-07-31T04:44:08.321Z,102774.13
2022-07-31T04:46:34.818Z,102761.50
2022-07-31T04:49:01.423Z,102749.75
2022-07-31T04:51:27.961Z,102738.34
2022-07-31T04:53:54.411Z,102733.56
2022-07-31T04:56:37.460Z,102717.19
2022-07-31T04:59:07.780Z,102689.72
2022-07-31T05:01:34.561Z,102654.91
2022-07-31T05:04:01.849Z,102642.44
2022-07-31T05:06:40.246Z,102630.91
2022-07-31T05:09:13.613Z,102623.50
2022-07-31T05:11:45.338Z,102612.50
2022-07-31T05:14:13.693Z,102611.63
2022-07-31T05:16:40.235Z,102603.25
2022-07-31T05:19:14.685Z,102597.50
2022-07-31T05:21:51.360Z,102577.09
2022-07-31T05:24:22.677Z,102553.81
2022-07-31T05:27:00.714Z,102537.72
2022-07-31T05:29:27.165Z,102515.50
2022-07-31T05:32:00.429Z,102487.28
2022-07-31T05:34:36.957Z,102478.59
2022-07-31T05:37:03.536Z,102443.69
2022-07-31T05:39:30.359Z,102427.25
2022-07-31T05:41:57.168Z,102430.44
2022-07-31T05:44:24.444Z,102395.75
2022-07-31T05:49:16.460Z,102371.72
2022-07-31T05:51:44.167Z,102354.47
2022-07-31T05:54:10.693Z,102335.97
2022-07-31T05:56:37.496Z,102315.13
2022-07-31T05:59:04.187Z,102303.41
2022-07-31T06:01:30.744Z,102278.59
2022-07-31T06:03:57.259Z,102263.31
2022-07-31T06:06:23.693Z,102248.66
2022-07-31T06:08:50.132Z,102250.22
2022-07-31T06:11:17.220Z,102220.16
2022-07-31T06:13:43.840Z,102206.19
2022-07-31T06:16:14.741Z,102207.19
2022-07-31T06:18:41.980Z,102192.84
2022-07-31T06:21:08.482Z,102177.13
2022-07-31T06:23:34.976Z,102165.28
2022-07-31T06:26:01.611Z,102148.75
2022-07-31T06:28:29.102Z,102128.38
2022-07-31T06:31:20.445Z,102107.28
2022-07-31T06:33:48.667Z,102086.72
2022-07-31T06:36:16.264Z,102066.91
2022-07-31T06:38:42.764Z,102020.16
2022-07-31T06:41:09.287Z,101990.19
2022-07-31T06:43:35.736Z,101968.44
2022-07-31T06:46:02.275Z,101935.75
2022-07-31T06:48:28.741Z,101918.25
2022-07-31T06:51:14.433Z,101896.28
2022-07-31T06:53:41.766Z,101811.41
2022-07-31T06:56:08.213Z,101785.50
2022-07-31T06:58:34.718Z,101731.56
2022-07-31T07:01:01.208Z,101690.88
2022-07-31T07:03:27.793Z,101669.34
2022-07-31T07:05:54.311Z,101657.94
2022-07-31T07:08:20.786Z,101637.22
2022-07-31T07:10:47.247Z,101591.75
2022-07-31T07:13:13.703Z,101574.78
2022-07-31T07:15:40.172Z,101574.28
2022-07-31T07:18:07.005Z,101575.94
2022-07-31T07:20:33.764Z,101575.66
2022-07-31T07:23:00.400Z,101564.53
2022-07-31T07:25:26.861Z,101531.28
2022-07-31T07:27:53.775Z,101518.97
2022-07-31T07:30:20.354Z,101496.41
2022-07-31T07:32:46.844Z,101484.47
2022-07-31T07:35:13.601Z,101454.13
2022-07-31T07:37:40.878Z,101446.78
2022-07-31T07:40:10.662Z,101423.50
2022-07-31T07:42:37.476Z,101426.53
2022-07-31T07:45:07.875Z,101430.53
2022-07-31T07:47:53.660Z,101428.56
2022-07-31T07:50:22.784Z,101424.94
2022-07-31T07:52:55.574Z,101422.19
2022-07-31T07:55:22.084Z,101413.63
2022-07-31T07:57:48.538Z,101414.00
2022-07-31T08:00:16.363Z,101402.69
2022-07-31T08:02:44.725Z,101394.88
2022-07-31T08:05:11.276Z,101405.53
2022-07-31T08:07:42.274Z,101411.00
2022-07-31T08:10:10.297Z,101406.06
2022-07-31T08:12:36.927Z,101438.63
2022-07-31T08:15:04.401Z,101490.63
2022-07-31T08:17:31.189Z,101517.72
2022-07-31T08:19:57.693Z,101515.88
2022-07-31T08:22:24.183Z,101512.34
2022-07-31T08:24:50.639Z,101520.47
2022-07-31T08:27:39.709Z,101539.75
2022-07-31T08:30:08.190Z,101561.28
2022-07-31T08:32:34.721Z,101544.28
2022-07-31T08:35:01.194Z,101552.28
2022-07-31T08:37:51.662Z,101547.94
2022-07-31T08:40:14.396Z,101550.72
2022-07-31T08:42:40.881Z,101555.94
2022-07-31T08:45:08.476Z,101550.97
2022-07-31T08:47:35.926Z,101556.66
2022-07-31T08:50:04.940Z,101561.78
2022-07-31T08:52:33.844Z,101575.59
2022-07-31T08:55:06.150Z,101581.75
2022-07-31T08:57:33.061Z,101577.69
2022-07-31T08:59:59.491Z,101572.75
2022-07-31T09:02:26.213Z,101572.50
2022-07-31T09:04:53.053Z,101571.44
2022-07-31T09:07:19.684Z,101574.25
2022-07-31T09:09:51.702Z,101569.00
2022-07-31T09:12:32.439Z,101561.31
2022-07-31T09:15:00.797Z,101554.38
2022-07-31T09:17:36.775Z,101565.25
2022-07-31T09:20:04.476Z,101552.00
2022-07-31T09:22:31.505Z,101544.13
2022-07-31T09:25:16.278Z,101547.41
2022-07-31T09:27:42.814Z,101530.00
2022-07-31T09:30:09.897Z,101545.50
2022-07-31T09:32:36.387Z,101552.69
2022-07-31T09:35:08.973Z,101548.09
2022-07-31T09:37:35.871Z,101552.69
2022-07-31T09:40:02.416Z,101552.34
2022-07-31T09:42:46.046Z,101562.63
2022-07-31T09:45:23.021Z,101551.69
2022-07-31T09:48:16.141Z,101554.38
2022-07-31T09:50:55.403Z,101571.50
2022-07-31T09:53:22.167Z,101537.56
2022-07-31T09:55:57.364Z,101530.44
2022-07-31T09:58:25.003Z,101514.41
2022-07-31T10:00:53.479Z,101489.22
2022-07-31T10:03:20.766Z,101511.84
2022-07-31T10:05:47.676Z,101504.69
2022-07-31T10:08:17.162Z,101546.91
2022-07-31T10:10:45.113Z,101535.97
2022-07-31T10:13:15.447Z,101550.28
2022-07-31T10:15:45.494Z,101522.28
2022-07-31T10:18:12.447Z,101532.84
2022-07-31T10:20:42.433Z,101576.94
2022-07-31T10:23:14.359Z,101580.84
2022-07-31T10:25:53.711Z,101579.50
2022-07-31T10:28:21.392Z,101588.84
2022-07-31T10:30:48.325Z,101577.72
2022-07-31T10:33:41.901Z,101579.97
2022-07-31T10:36:16.750Z,101540.09
2022-07-31T10:38:54.758Z,101542.53
2022-07-31T10:41:25.320Z,101540.09
2022-07-31T10:43:57.077Z,101503.75
2022-07-31T10:46:28.543Z,101465.97
2022-07-31T10:48:55.612Z,101477.97
2022-07-31T10:51:23.252Z,101484.38
2022-07-31T10:54:01.689Z,101462.28
2022-07-31T10:56:39.984Z,101430.41
2022-07-31T10:59:06.496Z,101434.66
2022-07-31T11:01:53.210Z,101411.66
2022-07-31T11:04:32.714Z,101390.63
2022-07-31T11:06:59.566Z,101376.59
2022-07-31T11:09:28.728Z,101392.78
2022-07-31T11:11:55.876Z,101384.31
2022-07-31T11:14:33.212Z,101407.47
2022-07-31T11:17:00.060Z,101418.38
2022-07-31T11:19:40.859Z,101409.38
2022-07-31T11:22:32.280Z,101382.56
2022-07-31T11:24:59.054Z,101281.75
2022-07-31T11:27:33.049Z,101222.84
2022-07-31T11:30:12.631Z,101117.44
2022-07-31T11:32:40.985Z,101152.19
2022-07-31T11:35:07.993Z,101242.53
2022-07-31T11:37:46.311Z,101285.88
2022-07-31T11:40:15.930Z,101331.22
2022-07-31T11:42:44.550Z,101350.03
2022-07-31T11:45:12.401Z,101302.09
2022-07-31T11:48:12.604Z,101257.13
2022-07-31T11:50:39.747Z,101111.97
2022-07-31T11:53:07.195Z,101134.13
2022-07-31T11:56:00.711Z,101096.44
2022-07-31T11:58:28.801Z,101089.69
2022-07-31T12:01:00.223Z,101073.44
2022-07-31T12:03:33.003Z,101145.81
2022-07-31T12:05:59.871Z,101275.88
2022-07-31T12:08:27.748Z,101284.44
2022-07-31T12:10:55.095Z,101314.34
2022-07-31T12:13:23.048Z,101318.78
2022-07-31T12:15:56.347Z,101262.44
2022-07-31T12:18:23.127Z,101258.53
2022-07-31T12:21:04.272Z,101258.50
2022-07-31T12:23:49.545Z,101217.28
2022-07-31T12:26:25.317Z,101230.66
2022-07-31T12:28:58.595Z,101192.13
2022-07-31T12:31:25.369Z,101260.06
2022-07-31T12:33:51.938Z,101296.59
2022-07-31T12:36:18.493Z,101337.22
2022-07-31T12:39:54.429Z,101338.03
2022-07-31T12:41:58.851Z,101374.69
2022-07-31T12:44:25.356Z,101360.28
2022-07-31T12:46:51.851Z,101362.94
2022-07-31T12:49:18.587Z,101343.50
2022-07-31T12:51:47.165Z,101337.34
2022-07-31T12:54:17.773Z,101338.06
2022-07-31T12:56:46.454Z,101342.41
2022-07-31T12:59:13.499Z,101342.41
2022-07-31T13:01:40.287Z,101352.69
2022-07-31T13:04:07.475Z,101382.84
2022-07-31T13:06:35.119Z,101356.91
2022-07-31T13:09:01.639Z,101353.66
2022-07-31T13:11:46.373Z,101360.47
2022-07-31T13:14:16.239Z,101306.72
2022-07-31T13:16:42.786Z,101271.78
2022-07-31T13:19:09.273Z,101220.28
2022-07-31T13:21:48.128Z,101195.25
2022-07-31T13:24:17.905Z,101190.88
2022-07-31T13:26:45.344Z,101173.53
2022-07-31T13:29:12.452Z,101185.91
2022-07-31T13:31:39.344Z,101203.84
2022-07-31T13:34:06.256Z,101175.44
2022-07-31T13:36:38.814Z,101143.41
2022-07-31T13:39:08.767Z,101207.41
2022-07-31T13:41:36.058Z,101199.28
2022-07-31T13:44:05.884Z,101223.03
2022-07-31T13:46:32.446Z,101236.25
2022-07-31T13:48:59.561Z,101286.50
2022-07-31T13:51:28.545Z,101299.16
2022-07-31T13:53:55.520Z,101280.22
2022-07-31T13:56:37.524Z,101302.22
2022-07-31T13:59:08.593Z,101320.09
2022-07-31T14:02:03.222Z,101332.97
2022-07-31T14:04:23.870Z,101333.50
2022-07-31T14:06:50.560Z,101338.78
2022-07-31T14:09:18.451Z,101363.97
2022-07-31T14:11:45.013Z,101340.00
2022-07-31T14:14:12.365Z,101337.09
2022-07-31T14:16:39.358Z,101353.69
2022-07-31T14:19:05.857Z,101342.59
2022-07-31T14:21:34.352Z,101358.94
2022-07-31T14:24:00.885Z,101365.41
2022-07-31T14:26:27.330Z,101384.94
2022-07-31T14:28:53.832Z,101375.28
2022-07-31T14:31:20.328Z,101359.84
2022-07-31T14:33:46.885Z,101371.88
2022-07-31T14:36:13.430Z,101377.66
2022-07-31T14:38:39.905Z,101370.53
2022-07-31T14:41:07.147Z,101379.28
2022-07-31T14:43:33.787Z,101378.75
2022-07-31T14:46:00.257Z,101404.97
2022-07-31T14:48:27.371Z,101404.50
2022-07-31T14:50:54.092Z,101397.91
2022-07-31T14:53:20.691Z,101397.03
2022-07-31T14:55:47.171Z,101406.66
2022-07-31T14:58:13.787Z,101404.94
2022-07-31T15:00:40.292Z,101404.25
2022-07-31T15:03:07.344Z,101410.56
2022-07-31T15:06:55.463Z,101421.53
2022-07-31T15:08:20.452Z,101420.13
2022-07-31T15:10:46.917Z,101433.28
2022-07-31T15:13:13.478Z,101439.47
2022-07-31T15:15:40.348Z,101443.59
2022-07-31T15:18:06.864Z,101445.31
2022-07-31T15:20:36.238Z,101443.56
2022-07-31T15:23:04.185Z,101443.41
2022-07-31T15:25:30.733Z,101448.81
2022-07-31T15:27:57.259Z,101454.75
2022-07-31T15:30:23.795Z,101450.66
2022-07-31T15:32:52.023Z,101458.94
2022-07-31T15:35:18.490Z,101455.59
2022-07-31T15:37:45.781Z,101458.94
2022-07-31T15:40:17.044Z,101443.50
2022-07-31T15:42:45.533Z,101440.91
2022-07-31T15:45:17.385Z,101409.47
2022-07-31T15:47:45.005Z,101361.88
2022-07-31T15:50:14.073Z,101291.25
2022-07-31T15:52:41.198Z,101246.19
2022-07-31T15:55:08.922Z,101175.63
2022-07-31T15:57:35.749Z,101124.84
2022-07-31T16:00:02.310Z,101115.81
2022-07-31T16:02:28.928Z,101113.22
2022-07-31T16:04:59.727Z,101096.41
2022-07-31T16:08:30.615Z,101092.44
2022-07-31T16:10:24.071Z,101069.66
2022-07-31T16:12:50.549Z,101057.06
2022-07-31T16:15:17.206Z,101047.56
2022-07-31T16:17:44.613Z,101051.13
2022-07-31T16:20:25.422Z,101060.19
2022-07-31T16:22:56.670Z,101089.34
2022-07-31T16:25:36.340Z,101101.81
2022-07-31T16:28:04.230Z,101118.06
2022-07-31T16:30:31.649Z,101118.66
2022-07-31T16:32:58.149Z,101134.09
2022-07-31T16:35:26.238Z,101154.44
2022-07-31T16:37:54.021Z,101169.84
2022-07-31T16:40:28.901Z,101203.69
2022-07-31T16:43:46.887Z,101244.28
2022-07-31T16:45:50.363Z,101266.06
2022-07-31T16:48:17.249Z,101292.75
2022-07-31T16:50:43.685Z,101314.88
2022-07-31T16:53:13.550Z,101329.84
2022-07-31T16:56:00.730Z,101348.75
2022-07-31T16:58:28.227Z,101368.56
2022-07-31T17:00:54.859Z,101373.16
2022-07-31T17:03:58.717Z,101393.75
2022-07-31T17:06:10.324Z,101407.66
2022-07-31T17:08:38.142Z,101420.63
2022-07-31T17:11:07.617Z,101431.69
2022-07-31T17:13:34.316Z,101444.31
2022-07-31T17:16:00.783Z,101461.34
2022-07-31T17:18:27.307Z,101473.38
2022-07-31T17:20:56.122Z,101487.53
2022-07-31T17:23:42.820Z,101498.72
2022-07-31T17:26:20.798Z,101504.63
2022-07-31T17:28:48.477Z,101524.13
2022-07-31T17:31:14.984Z,101530.97
2022-07-31T17:33:58.485Z,101533.91
2022-07-31T17:36:27.014Z,101540.75
2022-07-31T17:38:53.466Z,101540.53
2022-07-31T17:41:24.614Z,101547.47
2022-07-31T17:43:53.079Z,101574.72
2022-07-31T17:46:28.176Z,101572.50
2022-07-31T17:49:01.581Z,101564.94
2022-07-31T17:51:28.156Z,101561.28
2022-07-31T17:53:59.317Z,101568.75
2022-07-31T17:56:26.580Z,101572.28
2022-07-31T17:58:53.844Z,101574.81
2022-07-31T18:01:23.329Z,101652.88
2022-07-31T18:03:52.209Z,101723.06
2022-07-31T18:06:18.647Z,101721.09
2022-07-31T18:08:45.119Z,101758.97
2022-07-31T18:11:11.650Z,101758.84
2022-07-31T18:13:47.749Z,101781.06
2022-07-31T18:16:15.048Z,101986.53
2022-07-31T18:18:41.524Z,101987.91
2022-07-31T18:21:08.041Z,102005.53
2022-07-31T18:23:34.593Z,102019.72
2022-07-31T18:26:01.271Z,102028.34
2022-07-31T18:28:27.720Z,102040.06
2022-07-31T18:30:54.461Z,102046.38
2022-07-31T18:33:21.867Z,102057.31
2022-07-31T18:35:48.405Z,102067.06
2022-07-31T18:38:15.131Z,102063.44
2022-07-31T18:40:41.685Z,102066.78
2022-07-31T18:43:08.990Z,102074.47
2022-07-31T18:45:36.046Z,102084.03
2022-07-31T18:48:08.155Z,102083.81
2022-07-31T18:51:01.575Z,102091.03
2022-07-31T18:53:21.121Z,102103.47
2022-07-31T18:55:47.741Z,102112.19
2022-07-31T18:58:14.234Z,102113.78
2022-07-31T19:00:40.812Z,102112.28
2022-07-31T19:03:07.870Z,102121.72
2022-07-31T19:05:34.487Z,102126.25
2022-07-31T19:08:00.981Z,102132.03
2022-07-31T19:10:30.858Z,102131.69
2022-07-31T19:12:58.684Z,102140.41
2022-07-31T19:15:25.233Z,102143.41
2022-07-31T19:17:51.732Z,102145.34
2022-07-31T19:20:56.450Z,102177.53
2022-07-31T19:23:12.471Z,102180.41
2022-07-31T19:26:02.441Z,102190.38
2022-07-31T19:28:27.262Z,102149.06
2022-07-31T19:30:54.548Z,102156.47
2022-07-31T19:33:21.108Z,102170.88
2022-07-31T19:35:55.334Z,102173.31
2022-07-31T19:38:25.340Z,102184.81
2022-07-31T19:40:51.920Z,102195.53
2022-07-31T19:43:20.306Z,102207.78
2022-07-31T19:46:02.641Z,102213.56
2022-07-31T19:48:33.946Z,102236.28
2022-07-31T19:51:00.401Z,102262.25
2022-07-31T19:53:26.879Z,102274.41
2022-07-31T19:55:53.397Z,102294.03
2022-07-31T19:58:22.097Z,102293.00
2022-07-31T20:00:48.784Z,102301.13
2022-07-31T20:03:15.461Z,102293.63
2022-07-31T20:05:42.041Z,102290.84
2022-07-31T20:08:08.570Z,102281.19
2022-07-31T20:10:35.064Z,102264.13
2022-07-31T20:13:01.680Z,102289.44
2022-07-31T20:15:51.216Z,102224.28
2022-07-31T20:18:23.598Z,102208.00
2022-07-31T20:21:09.766Z,102193.41
2022-07-31T20:23:38.845Z,102182.47
2022-07-31T20:26:06.947Z,102165.41
2022-07-31T20:28:33.500Z,102152.97
2022-07-31T20:31:00.012Z,102146.63
2022-07-31T20:33:26.543Z,102115.94
2022-07-31T20:35:53.092Z,102098.75
2022-07-31T20:38:23.727Z,102086.97
2022-07-31T20:40:53.420Z,102056.78
2022-07-31T20:43:26.502Z,102065.34
2022-07-31T20:45:53.620Z,102066.88
2022-07-31T20:48:23.797Z,102064.81
2022-07-31T20:50:50.852Z,102071.84
2022-07-31T20:53:17.538Z,102062.69
2022-07-31T20:55:49.300Z,102065.69
2022-07-31T20:58:17.604Z,102062.69
2022-07-31T21:00:45.282Z,102039.84
2022-07-31T21:03:11.724Z,102032.84
2022-07-31T21:05:38.291Z,102046.56
2022-07-31T21:08:04.844Z,102043.34
2022-07-31T21:10:31.400Z,102046.56
2022-07-31T21:12:58.002Z,102038.63
2022-07-31T21:15:42.499Z,102039.94
2022-07-31T21:18:15.381Z,102038.44
2022-07-31T21:20:51.709Z,102031.69
2022-07-31T21:23:24.516Z,102041.63
2022-07-31T21:25:52.870Z,102039.19
2022-07-31T21:28:19.620Z,102038.22
2022-07-31T21:30:46.692Z,102040.38
2022-07-31T21:33:13.628Z,102045.63
2022-07-31T21:35:40.646Z,102042.28
2022-07-31T21:38:10.449Z,102045.09
2022-07-31T21:40:39.631Z,102049.16
2022-07-31T21:43:06.436Z,102046.28
2022-07-31T21:45:43.391Z,102062.16
2022-07-31T21:48:22.587Z,102052.38
2022-07-31T21:50:49.381Z,102061.38
2022-07-31T21:53:15.851Z,102055.94
2022-07-31T21:55:42.365Z,102063.88
2022-07-31T21:58:09.644Z,102067.72
2022-07-31T22:00:36.754Z,102069.25
2022-07-31T22:03:04.183Z,102065.19
2022-07-31T22:05:49.981Z,102059.91
2022-07-31T22:08:17.222Z,102059.91
2022-07-31T22:10:43.906Z,102066.34
2022-07-31T22:13:10.739Z,102072.13
2022-07-31T22:15:58.168Z,102079.88
2022-07-31T22:18:26.370Z,102083.19
2022-07-31T22:20:54.102Z,102079.88
2022-07-31T22:23:20.954Z,102088.25
2022-07-31T22:25:49.042Z,102088.44
2022-07-31T22:28:17.163Z,102097.47
2022-07-31T22:30:43.902Z,102092.31
2022-07-31T22:33:10.486Z,102108.63
2022-07-31T22:35:37.156Z,102124.97
2022-07-31T22:38:03.641Z,102132.22
2022-07-31T22:40:30.249Z,102145.53
2022-07-31T22:42:58.282Z,102143.09
2022-07-31T22:45:25.119Z,102149.84
2022-07-31T22:47:52.477Z,102161.00
2022-07-31T22:50:18.984Z,102161.00
2022-07-31T22:52:45.448Z,102163.38
2022-07-31T22:55:13.586Z,102174.13
2022-07-31T22:57:43.652Z,102173.03
2022-07-31T23:00:13.190Z,102172.16
2022-07-31T23:02:41.218Z,102182.72
2022-07-31T23:05:08.847Z,102203.66
2022-07-31T23:07:35.392Z,102203.31
2022-07-31T23:10:01.927Z,102209.97
2022-07-31T23:12:29.371Z,102217.03
2022-07-31T23:14:56.060Z,102209.06
2022-07-31T23:17:23.511Z,102221.56
2022-07-31T23:19:54.004Z,102218.94
2022-07-31T23:22:30.929Z,102213.28
2022-07-31T23:25:04.848Z,102214.25
2022-07-31T23:27:32.604Z,102220.03
2022-07-31T23:29:59.861Z,102220.03
2022-07-31T23:32:27.221Z,102224.78
2022-07-31T23:34:53.850Z,102238.28
2022-07-31T23:37:21.163Z,102234.97
2022-07-31T23:39:47.638Z,102250.09
2022-07-31T23:42:32.864Z,102246.44
2022-07-31T23:44:59.365Z,102244.94
2022-07-31T23:47:33.979Z,102239.38
2022-07-31T23:50:11.740Z,102246.69
2022-07-31T23:52:38.214Z,102253.78
2022-07-31T23:55:04.990Z,102255.91
2022-07-31T23:57:34.714Z,102255.25
